Time;durP1;ratioP1;P1;durP2;ratioP2;P2;SDS_P1;SDS_P2;PMS_P1;PMS_P2;Temp;Humidity;BMP_temperature;BMP_pressure;BME280_temperature;BME280_humidity;BME280_pressure;Samples;Min_cycle;Max_cycle;Signal;HPM_P1;HPM_P2
2022/09/23 00:00:46;;;;;;;2.15;1.60;;;12.70;99.90;;;;;;6142549;29;20195;-67
2022/09/23 00:03:52;;;;;;;4.07;1.63;;;12.70;99.90;;;;;;6141726;29;20246;-67
2022/09/23 00:06:58;;;;;;;5.63;1.88;;;12.70;99.90;;;;;;6142488;29;20228;-67
2022/09/23 00:10:03;;;;;;;7.05;1.90;;;12.70;99.90;;;;;;6135832;29;20240;-67
2022/09/23 00:13:09;;;;;;;1.80;1.70;;;12.70;99.90;;;;;;6125027;29;20235;-67
2022/09/23 00:16:18;;;;;;;8.07;1.90;;;12.60;99.90;;;;;;6141766;29;20195;-67
2022/09/23 00:19:23;;;;;;;10.23;2.10;;;12.60;99.90;;;;;;6141447;28;20236;-66
2022/09/23 00:22:27;;;;;;;9.05;2.45;;;12.60;99.90;;;;;;6141152;29;20189;-67
2022/09/23 00:25:32;;;;;;;4.15;1.98;;;12.60;99.90;;;;;;6141534;29;20471;-67
2022/09/23 00:28:37;;;;;;;8.35;2.00;;;12.70;99.90;;;;;;6141400;29;20236;-67
2022/09/23 00:31:41;;;;;;;2.60;1.80;;;12.70;99.90;;;;;;6141819;29;20262;-67
2022/09/23 00:34:47;;;;;;;3.08;1.90;;;12.70;99.90;;;;;;6141226;29;20517;-67
2022/09/23 00:37:51;;;;;;;3.58;2.00;;;12.70;99.90;;;;;;6141153;29;20238;-67
2022/09/23 00:40:57;;;;;;;6.50;2.08;;;12.70;99.90;;;;;;6141311;29;20189;-67
2022/09/23 00:44:02;;;;;;;7.75;1.98;;;12.70;99.90;;;;;;6141120;29;20247;-67
2022/09/23 00:47:15;;;;;;;7.43;2.08;;;12.70;99.90;;;;;;6141545;29;20188;-67
2022/09/23 00:50:26;;;;;;;8.80;2.00;;;12.70;99.90;;;;;;6117434;29;20209;-67
2022/09/23 00:53:30;;;;;;;11.32;1.85;;;12.70;99.90;;;;;;6126801;29;20227;-67
2022/09/23 00:56:35;;;;;;;3.78;1.98;;;12.70;99.90;;;;;;6141388;29;20189;-67
2022/09/23 00:59:40;;;;;;;14.95;2.10;;;12.70;99.90;;;;;;6140569;28;20359;-67
2022/09/23 01:02:44;;;;;;;5.65;2.05;;;12.70;99.90;;;;;;6140786;29;20300;-67
2022/09/23 01:05:50;;;;;;;6.65;1.98;;;12.70;99.90;;;;;;6141179;29;20196;-67
2022/09/23 01:08:55;;;;;;;3.13;1.65;;;12.60;99.90;;;;;;6140346;29;20239;-67
2022/09/23 01:12:07;;;;;;;6.75;1.75;;;12.70;99.90;;;;;;6161390;29;20196;-67
2022/09/23 01:15:18;;;;;;;3.30;1.67;;;12.70;99.90;;;;;;6164299;28;20313;-67
2022/09/23 01:18:33;;;;;;;4.03;1.80;;;12.70;99.90;;;;;;6164164;28;20237;-67
2022/09/23 01:21:48;;;;;;;4.35;1.60;;;12.70;99.90;;;;;;6164712;29;20188;-67
2022/09/23 01:25:12;;;;;;;3.65;1.77;;;12.70;99.90;;;;;;6164041;28;20231;-67
2022/09/23 01:28:35;;;;;;;4.43;1.70;;;12.70;99.90;;;;;;6163701;28;20564;-67
2022/09/23 01:31:44;;;;;;;3.55;1.83;;;12.70;99.90;;;;;;6164678;29;20304;-67
2022/09/23 01:34:54;;;;;;;8.10;2.17;;;12.80;99.90;;;;;;6164012;28;20235;-67
2022/09/23 01:38:08;;;;;;;4.20;1.92;;;12.70;99.90;;;;;;6163607;28;20561;-66
2022/09/23 01:41:27;;;;;;;4.28;2.10;;;12.70;99.90;;;;;;6164429;28;20188;-67
2022/09/23 01:44:38;;;;;;;8.90;2.00;;;12.60;99.90;;;;;;6164020;28;20470;-67
2022/09/23 01:47:50;;;;;;;5.68;2.03;;;12.60;99.90;;;;;;6163912;28;20231;-67
2022/09/23 01:50:59;;;;;;;9.73;2.17;;;12.60;99.90;;;;;;6162950;29;20415;-67
2022/09/23 01:54:08;;;;;;;3.50;1.80;;;12.70;99.90;;;;;;6163776;28;20234;-67
2022/09/23 01:57:18;;;;;;;3.70;1.92;;;12.70;99.90;;;;;;6164265;29;20275;-67
2022/09/23 02:00:23;;;;;;;2.05;1.92;;;12.60;99.90;;;;;;6163772;29;20521;-67
2022/09/23 02:03:33;;;;;;;12.15;2.35;;;12.60;99.90;;;;;;6167717;28;20235;-67
2022/09/23 02:06:42;;;;;;;8.77;1.77;;;12.60;99.90;;;;;;6168585;28;20195;-67
2022/09/23 02:09:52;;;;;;;7.03;1.88;;;12.60;99.90;;;;;;6164801;28;20258;-67
2022/09/23 02:13:04;;;;;;;2.30;2.20;;;12.60;99.90;;;;;;6144490;29;20228;-66
2022/09/23 02:16:21;;;;;;;5.70;1.83;;;12.60;99.90;;;;;;6144982;29;20223;-68
2022/09/23 02:19:32;;;;;;;3.45;1.85;;;12.60;99.90;;;;;;6144056;29;20240;-67
2022/09/23 02:22:41;;;;;;;2.75;1.60;;;12.60;99.90;;;;;;6143984;29;20487;-67
2022/09/23 02:25:53;;;;;;;1.98;1.73;;;12.50;99.90;;;;;;6144689;29;20260;-67
2022/09/23 02:29:08;;;;;;;6.25;2.03;;;12.60;99.90;;;;;;6143120;29;20310;-67
2022/09/23 02:32:18;;;;;;;3.35;1.73;;;12.60;99.90;;;;;;6144678;29;20189;-67
2022/09/23 02:35:31;;;;;;;4.93;2.22;;;12.50;99.90;;;;;;6144156;29;20403;-67
2022/09/23 02:38:40;;;;;;;3.13;1.80;;;12.50;99.90;;;;;;6143954;28;20236;-67
2022/09/23 02:41:52;;;;;;;5.57;1.60;;;12.60;99.90;;;;;;6144376;29;20219;-67
2022/09/23 02:44:57;;;;;;;4.25;2.25;;;12.60;99.90;;;;;;6143893;29;20228;-67
2022/09/23 02:48:07;;;;;;;5.80;2.25;;;12.60;99.90;;;;;;6143942;29;20228;-67
2022/09/23 02:51:13;;;;;;;4.32;2.28;;;12.50;99.90;;;;;;6143762;29;20211;-67
2022/09/23 02:54:20;;;;;;;2.47;1.90;;;12.50;99.90;;;;;;6143625;29;20255;-67
2022/09/23 02:57:24;;;;;;;7.03;2.08;;;12.50;99.90;;;;;;6143540;29;20216;-68
2022/09/23 03:00:42;;;;;;;2.05;1.83;;;12.50;99.90;;;;;;6140621;29;20232;-67
2022/09/23 03:03:54;;;;;;;23.35;2.28;;;12.50;99.90;;;;;;6146813;28;20290;-67
2022/09/23 03:07:05;;;;;;;5.82;1.90;;;12.50;99.90;;;;;;6154440;29;20252;-67
2022/09/23 03:10:20;;;;;;;3.25;1.80;;;12.50;99.90;;;;;;6146782;29;20382;-67
2022/09/23 03:13:33;;;;;;;2.65;2.33;;;12.50;99.90;;;;;;6165653;28;20307;-67
2022/09/23 03:16:42;;;;;;;2.38;2.00;;;12.50;99.90;;;;;;6167459;29;20196;-67
2022/09/23 03:19:50;;;;;;;2.83;1.70;;;12.40;99.90;;;;;;6154620;28;20235;-67
2022/09/23 03:23:00;;;;;;;4.13;2.15;;;12.50;99.90;;;;;;6142597;29;20429;-67
2022/09/23 03:26:10;;;;;;;1.70;1.60;;;12.40;99.90;;;;;;6143119;29;20211;-67
2022/09/23 03:29:15;;;;;;;2.15;1.90;;;12.50;99.90;;;;;;6142926;29;20238;-68
2022/09/23 03:32:25;;;;;;;2.22;1.65;;;12.50;99.90;;;;;;6142901;29;20231;-67
2022/09/23 03:35:32;;;;;;;2.15;1.92;;;12.50;99.90;;;;;;6144566;29;20189;-68
2022/09/23 03:38:43;;;;;;;2.25;1.90;;;12.50;99.90;;;;;;6166511;28;20238;-68
2022/09/23 03:41:50;;;;;;;1.73;1.63;;;12.40;99.90;;;;;;6166499;29;20550;-68
2022/09/23 03:44:55;;;;;;;3.45;2.08;;;12.40;99.90;;;;;;6166178;28;20491;-68
2022/09/23 03:47:59;;;;;;;1.95;1.83;;;12.50;99.90;;;;;;6166354;28;20303;-68
2022/09/23 03:51:19;;;;;;;1.88;1.77;;;12.40;99.90;;;;;;6166702;29;20278;-68
2022/09/23 03:54:28;;;;;;;2.00;2.00;;;12.40;99.90;;;;;;6166074;28;20465;-68
2022/09/23 03:57:32;;;;;;;1.90;1.80;;;12.40;99.90;;;;;;6165801;28;20354;-68
2022/09/23 04:00:36;;;;;;;4.50;2.00;;;12.40;99.90;;;;;;6165920;29;20413;-67
2022/09/23 04:03:41;;;;;;;6.38;2.10;;;12.30;99.90;;;;;;6165780;28;20311;-67
2022/09/23 04:06:46;;;;;;;1.75;1.70;;;12.30;99.90;;;;;;6166249;29;20275;-67
2022/09/23 04:09:51;;;;;;;2.28;1.90;;;12.30;99.90;;;;;;6162229;28;20231;-67
2022/09/23 04:12:56;;;;;;;1.77;1.77;;;12.20;99.90;;;;;;6141488;29;20589;-67
2022/09/23 04:16:01;;;;;;;3.25;2.17;;;12.20;99.90;;;;;;6142238;29;20303;-68
2022/09/23 04:19:05;;;;;;;3.83;2.03;;;12.10;99.90;;;;;;6141708;29;20246;-68
2022/09/23 04:22:15;;;;;;;2.17;2.10;;;12.10;99.90;;;;;;6141999;29;20235;-68
2022/09/23 04:25:21;;;;;;;2.08;1.98;;;12.20;99.90;;;;;;6141909;29;20219;-68
2022/09/23 04:28:36;;;;;;;3.60;1.90;;;12.10;99.90;;;;;;6141676;29;20232;-68
2022/09/23 04:31:40;;;;;;;2.78;2.00;;;12.10;99.90;;;;;;6141503;29;20215;-69
2022/09/23 04:34:45;;;;;;;4.68;1.98;;;12.10;99.90;;;;;;6140902;29;20593;-67
2022/09/23 04:37:49;;;;;;;3.05;2.00;;;12.10;99.90;;;;;;6141447;29;20335;-68
2022/09/23 04:40:55;;;;;;;2.65;2.15;;;12.00;99.90;;;;;;6140569;29;20223;-67
2022/09/23 04:43:59;;;;;;;2.10;2.10;;;12.00;99.90;;;;;;6140852;29;20605;-67
2022/09/23 04:47:04;;;;;;;2.63;2.30;;;12.00;99.90;;;;;;6140685;29;20510;-68
2022/09/23 04:50:09;;;;;;;2.30;2.10;;;12.00;99.90;;;;;;6141578;29;20227;-68
2022/09/23 04:53:15;;;;;;;2.33;2.22;;;11.90;99.90;;;;;;6140989;29;20235;-68
2022/09/23 04:56:23;;;;;;;5.47;2.40;;;11.90;99.90;;;;;;6140967;29;20236;-68
2022/09/23 04:59:29;;;;;;;2.45;2.30;;;11.90;99.90;;;;;;6140675;29;20235;-66
2022/09/23 05:02:34;;;;;;;5.93;2.50;;;11.90;99.90;;;;;;6140806;29;20294;-67
2022/09/23 05:05:38;;;;;;;2.13;2.13;;;12.00;99.90;;;;;;6141260;29;20211;-67
2022/09/23 05:08:47;;;;;;;2.53;2.05;;;12.00;99.90;;;;;;6140355;29;20302;-67
2022/09/23 05:11:53;;;;;;;2.58;2.38;;;12.00;99.90;;;;;;6159695;28;20211;-67
2022/09/23 05:14:57;;;;;;;4.85;2.22;;;12.00;99.90;;;;;;6164464;28;20258;-68
2022/09/23 05:18:01;;;;;;;3.85;2.40;;;12.10;99.90;;;;;;6164136;28;20231;-68
2022/09/23 05:21:06;;;;;;;2.63;2.30;;;12.10;99.90;;;;;;6164313;29;20215;-68
2022/09/23 05:24:12;;;;;;;2.58;2.47;;;12.10;99.90;;;;;;6164214;28;20438;-66
2022/09/23 05:27:17;;;;;;;3.35;3.00;;;12.20;99.90;;;;;;6163853;28;20577;-68
2022/09/23 05:30:22;;;;;;;4.07;2.90;;;12.20;99.90;;;;;;6164017;29;20395;-66
2022/09/23 05:33:26;;;;;;;3.85;3.10;;;12.20;99.90;;;;;;6164010;28;20239;-66
2022/09/23 05:36:32;;;;;;;19.73;5.00;;;12.30;99.90;;;;;;6163536;28;20258;-67
2022/09/23 05:39:42;;;;;;;32.85;9.55;;;12.30;99.90;;;;;;6162836;29;20250;-68
2022/09/23 05:42:47;;;;;;;35.25;9.13;;;12.30;99.90;;;;;;6163823;28;20250;-67
2022/09/23 05:45:52;;;;;;;33.78;8.35;;;12.30;99.90;;;;;;6164329;29;20194;-67
2022/09/23 05:48:57;;;;;;;40.60;8.70;;;12.30;99.90;;;;;;6163808;28;20504;-67
2022/09/23 05:52:07;;;;;;;36.22;8.95;;;12.40;99.90;;;;;;6163605;28;20352;-68
2022/09/23 05:55:11;;;;;;;31.83;7.82;;;12.50;99.90;;;;;;6164228;29;20188;-67
2022/09/23 05:58:17;;;;;;;30.20;8.15;;;12.50;99.90;;;;;;6163848;28;20250;-67
2022/09/23 06:01:23;;;;;;;26.90;6.60;;;12.60;99.90;;;;;;6164025;29;20215;-68
2022/09/23 06:04:28;;;;;;;37.35;8.15;;;12.60;99.90;;;;;;6163624;28;20235;-68
2022/09/23 06:07:32;;;;;;;23.67;7.75;;;12.70;99.90;;;;;;6163416;28;20234;-67
2022/09/23 06:10:37;;;;;;;41.85;8.45;;;12.70;99.90;;;;;;6154854;28;20284;-67
2022/09/23 06:13:43;;;;;;;22.95;7.53;;;12.70;99.90;;;;;;6139588;29;20525;-68
2022/09/23 06:16:47;;;;;;;24.27;7.32;;;12.70;99.90;;;;;;6140082;29;20196;-67
2022/09/23 06:19:51;;;;;;;17.08;5.72;;;12.80;99.90;;;;;;6116184;29;20492;-67
2022/09/23 06:22:56;;;;;;;12.20;4.45;;;12.70;99.90;;;;;;6124421;29;20334;-67
2022/09/23 06:26:01;;;;;;;15.57;4.65;;;12.80;99.90;;;;;;6139726;29;20199;-67
2022/09/23 06:29:10;;;;;;;14.65;4.05;;;12.80;99.90;;;;;;6139649;28;20252;-67
2022/09/23 06:32:15;;;;;;;10.45;3.47;;;12.90;99.90;;;;;;6139244;29;20239;-67
2022/09/23 06:35:20;;;;;;;5.70;3.72;;;13.00;99.90;;;;;;6140172;29;20259;-67
2022/09/23 06:38:33;;;;;;;4.68;2.80;;;13.00;99.90;;;;;;6139729;29;20310;-67
2022/09/23 06:41:37;;;;;;;4.18;3.05;;;13.00;99.90;;;;;;6139867;29;20216;-67
2022/09/23 06:44:49;;;;;;;10.65;4.53;;;13.10;99.90;;;;;;6139436;29;20565;-66
2022/09/23 06:47:56;;;;;;;10.95;3.90;;;13.10;99.90;;;;;;6140248;29;20610;-66
2022/09/23 06:51:02;;;;;;;12.27;3.55;;;13.10;99.90;;;;;;6143727;29;20381;-66
2022/09/23 06:54:08;;;;;;;8.10;3.38;;;13.20;99.90;;;;;;6143789;29;20299;-66
2022/09/23 06:57:12;;;;;;;5.55;2.90;;;13.20;99.90;;;;;;6143198;29;20250;-66
2022/09/23 07:00:19;;;;;;;6.65;3.00;;;13.20;99.90;;;;;;6143791;29;20215;-66
2022/09/23 07:03:23;;;;;;;6.32;3.65;;;13.20;99.90;;;;;;6142010;29;20307;-66
2022/09/23 07:06:27;;;;;;;10.75;4.00;;;13.30;99.90;;;;;;6143795;29;20188;-67
2022/09/23 07:09:32;;;;;;;6.82;3.28;;;13.40;99.90;;;;;;6143234;29;20490;-67
2022/09/23 07:12:36;;;;;;;5.25;2.80;;;13.40;99.90;;;;;;6167077;28;20285;-67
2022/09/23 07:15:41;;;;;;;5.75;2.95;;;13.50;99.90;;;;;;6167457;29;20195;-67
2022/09/23 07:18:46;;;;;;;3.17;2.17;;;13.50;99.90;;;;;;6166993;28;20231;-67
2022/09/23 07:21:50;;;;;;;6.38;2.20;;;13.50;99.90;;;;;;6165605;28;20215;-68
2022/09/23 07:24:55;;;;;;;7.28;2.40;;;13.60;99.90;;;;;;6167277;28;20187;-67
2022/09/23 07:27:59;;;;;;;4.50;1.92;;;13.70;99.90;;;;;;6166602;28;20314;-67
2022/09/23 07:31:08;;;;;;;4.47;2.10;;;13.70;99.90;;;;;;6167261;28;20192;-67
2022/09/23 07:34:13;;;;;;;2.30;1.92;;;13.80;99.90;;;;;;6166528;28;20322;-67
2022/09/23 07:37:18;;;;;;;5.78;2.30;;;13.80;99.90;;;;;;6166609;28;20234;-67
2022/09/23 07:40:22;;;;;;;5.25;1.88;;;13.80;99.90;;;;;;6166425;29;20508;-67
2022/09/23 07:43:27;;;;;;;2.17;1.90;;;13.80;99.90;;;;;;6165323;29;20231;-67
2022/09/23 07:46:35;;;;;;;8.93;1.92;;;13.80;99.90;;;;;;6166692;29;20191;-67
2022/09/23 07:49:40;;;;;;;3.88;1.90;;;13.90;99.90;;;;;;6166225;28;20268;-68
2022/09/23 07:52:44;;;;;;;2.25;1.85;;;13.90;99.90;;;;;;6165785;28;20560;-67
2022/09/23 07:55:54;;;;;;;4.78;1.90;;;14.00;99.90;;;;;;6166007;28;20408;-67
2022/09/23 07:59:02;;;;;;;5.13;1.83;;;14.00;99.90;;;;;;6165334;28;20235;-67
2022/09/23 08:02:10;;;;;;;5.00;2.80;;;14.10;99.90;;;;;;6165408;28;20216;-67
2022/09/23 08:05:15;;;;;;;5.15;2.75;;;14.20;99.90;;;;;;6165998;29;20211;-67
2022/09/23 08:08:19;;;;;;;7.82;2.70;;;14.20;99.90;;;;;;6165414;28;20231;-67
2022/09/23 08:11:24;;;;;;;2.95;2.55;;;14.20;99.90;;;;;;6150768;29;20349;-67
2022/09/23 08:14:30;;;;;;;6.07;2.33;;;14.30;99.90;;;;;;6141772;29;20303;-67
2022/09/23 08:17:35;;;;;;;2.50;2.30;;;14.30;99.90;;;;;;6141566;29;20235;-67
2022/09/23 08:20:46;;;;;;;3.28;2.90;;;14.40;99.90;;;;;;6142054;29;20188;-67
2022/09/23 08:23:51;;;;;;;6.30;2.88;;;14.40;99.90;;;;;;6141508;29;20340;-67
2022/09/23 08:26:55;;;;;;;7.65;2.28;;;14.50;99.90;;;;;;6140976;29;20439;-68
2022/09/23 08:30:00;;;;;;;7.05;2.40;;;14.50;99.90;;;;;;6141505;29;20199;-67
2022/09/23 08:33:05;;;;;;;5.07;2.50;;;14.50;99.90;;;;;;6141244;29;20243;-68
2022/09/23 08:36:11;;;;;;;4.72;2.28;;;14.50;99.90;;;;;;6141736;29;20195;-67
2022/09/23 08:39:17;;;;;;;5.85;2.20;;;14.60;99.90;;;;;;6141153;29;20476;-67
2022/09/23 08:42:28;;;;;;;2.83;2.28;;;14.60;99.90;;;;;;6140843;29;20395;-67
2022/09/23 08:45:35;;;;;;;1.98;1.80;;;14.70;99.90;;;;;;6141450;29;20193;-67
2022/09/23 08:48:43;;;;;;;3.63;1.88;;;14.80;99.90;;;;;;6140807;29;20300;-67
2022/09/23 08:51:50;;;;;;;2.65;2.00;;;14.80;99.90;;;;;;6141386;29;20263;-67
2022/09/23 08:54:54;;;;;;;4.55;1.67;;;15.00;99.90;;;;;;6140908;29;20409;-68
2022/09/23 08:58:09;;;;;;;7.95;2.00;;;15.00;99.90;;;;;;6140385;29;20542;-67
2022/09/23 09:01:37;;;;;;;3.35;1.60;;;15.10;99.90;;;;;;6140691;29;20274;-67
2022/09/23 09:04:45;;;;;;;5.95;1.98;;;15.10;99.90;;;;;;6140625;29;20291;-67
2022/09/23 09:07:50;;;;;;;2.90;2.13;;;15.10;99.90;;;;;;6140756;29;20239;-68
2022/09/23 09:10:57;;;;;;;6.40;1.75;;;15.30;99.90;;;;;;6151296;28;20239;-67
2022/09/23 09:14:12;;;;;;;1.77;1.60;;;15.40;99.90;;;;;;6164329;28;20294;-67
2022/09/23 09:17:23;;;;;;;5.50;1.45;;;15.40;99.90;;;;;;6164020;28;20286;-67
2022/09/23 09:20:39;;;;;;;2.65;1.83;;;15.40;99.90;;;;;;6164406;29;20409;-67
2022/09/23 09:23:52;;;;;;;2.95;1.50;;;15.50;99.90;;;;;;6163671;28;20538;-68
2022/09/23 09:26:56;;;;;;;7.55;1.88;;;15.50;99.90;;;;;;6164085;28;20259;-68
2022/09/23 09:30:01;;;;;;;3.63;1.48;;;15.60;99.90;;;;;;6164625;28;20188;-67
2022/09/23 09:33:14;;;;;;;6.63;1.85;;;15.60;99.90;;;;;;6163744;28;20427;-68
2022/09/23 09:36:34;;;;;;;1.92;1.65;;;15.60;99.90;;;;;;6164610;29;20188;-68
2022/09/23 09:39:39;;;;;;;1.80;1.70;;;15.60;99.90;;;;;;6164030;28;20585;-69
2022/09/23 09:42:48;;;;;;;1.88;1.80;;;15.70;99.90;;;;;;6163728;28;20235;-67
2022/09/23 09:46:03;;;;;;;2.30;1.88;;;15.70;99.90;;;;;;6163873;29;20187;-67
2022/09/23 09:49:15;;;;;;;2.35;1.73;;;15.70;99.90;;;;;;6163337;28;20298;-67
2022/09/23 09:52:28;;;;;;;2.00;1.55;;;15.80;99.90;;;;;;6163366;28;20616;-67
2022/09/23 09:55:32;;;;;;;2.03;1.45;;;15.90;99.90;;;;;;6163767;29;20374;-67
2022/09/23 09:58:47;;;;;;;8.48;1.73;;;15.90;99.90;;;;;;6163515;28;20242;-67
2022/09/23 10:02:13;;;;;;;1.58;1.48;;;15.90;99.90;;;;;;6163602;28;20211;-67
2022/09/23 10:05:27;;;;;;;6.35;2.00;;;16.00;99.90;;;;;;6164346;29;20222;-66
2022/09/23 10:08:34;;;;;;;1.75;1.55;;;16.00;99.90;;;;;;6163656;28;20274;-68
2022/09/23 10:11:39;;;;;;;5.05;1.70;;;16.10;99.90;;;;;;6146157;28;20290;-67
2022/09/23 10:14:44;;;;;;;1.92;1.83;;;16.10;99.90;;;;;;6139775;29;20235;-67
2022/09/23 10:17:51;;;;;;;2.75;1.73;;;16.10;99.90;;;;;;6139598;29;20596;-67
2022/09/23 10:21:02;;;;;;;1.42;1.30;;;16.10;99.90;;;;;;6139858;29;20313;-67
2022/09/23 10:24:09;;;;;;;1.75;1.65;;;16.10;99.90;;;;;;6142599;29;20250;-67
2022/09/23 10:27:13;;;;;;;3.95;1.60;;;16.20;99.90;;;;;;6144180;29;20232;-67
2022/09/23 10:30:23;;;;;;;5.38;1.60;;;16.20;99.90;;;;;;6144682;29;20196;-67
2022/09/23 10:33:28;;;;;;;3.13;1.40;;;16.20;99.90;;;;;;6144149;29;20236;-67
2022/09/23 10:36:33;;;;;;;1.23;1.13;;;16.10;99.90;;;;;;6143917;29;20436;-67
2022/09/23 10:46:59;;;;;;;3.15;1.45;;;16.20;99.90;;;;;;6143350;29;20232;-67
2022/09/23 10:50:15;;;;;;;2.53;1.40;;;16.30;99.90;;;;;;6143943;29;20215;-66
2022/09/23 10:53:27;;;;;;;2.85;1.40;;;16.30;99.90;;;;;;6143591;29;20235;-66
2022/09/23 10:56:37;;;;;;;4.38;1.48;;;16.30;99.90;;;;;;6143984;29;20260;-66
2022/09/23 10:59:54;;;;;;;2.33;1.20;;;16.30;99.90;;;;;;6158291;29;20262;-67
2022/09/23 11:03:41;;;;;;;2.78;1.23;;;16.30;99.90;;;;;;6143009;29;20283;-67
2022/09/23 11:07:13;;;;;;;1.20;1.10;;;16.30;99.90;;;;;;6143409;29;20450;-66
2022/09/23 11:11:10;;;;;;;3.13;1.20;;;16.50;99.90;;;;;;6149675;29;20231;-67
2022/09/23 11:14:37;;;;;;;1.50;1.30;;;16.40;99.90;;;;;;6159707;28;20587;-66
2022/09/23 11:18:50;;;;;;;3.15;1.33;;;16.50;99.90;;;;;;6166843;28;20231;-67
2022/09/23 11:22:19;;;;;;;2.17;1.20;;;16.50;99.90;;;;;;6087804;28;20216;-67
2022/09/23 11:25:35;;;;;;;1.95;1.20;;;16.60;99.20;;;;;;6166916;29;20255;-67
2022/09/23 11:29:07;;;;;;;1.38;1.05;;;16.70;99.30;;;;;;6166683;28;20231;-67
2022/09/23 11:32:46;;;;;;;1.80;1.15;;;16.70;99.50;;;;;;6166683;28;20254;-66
2022/09/23 11:35:54;;;;;;;1.30;1.20;;;16.70;99.70;;;;;;6165914;28;20198;-67
2022/09/23 11:39:03;;;;;;;1.40;1.30;;;16.80;99.50;;;;;;6166336;28;20298;-67
2022/09/23 11:42:13;;;;;;;4.38;1.20;;;16.80;99.00;;;;;;6165932;28;20476;-67
2022/09/23 11:45:22;;;;;;;1.77;1.08;;;16.90;99.90;;;;;;6166409;29;20372;-67
2022/09/23 11:48:32;;;;;;;2.92;1.20;;;16.80;99.50;;;;;;6166143;28;20258;-67
2022/09/23 11:51:44;;;;;;;2.20;2.00;;;16.80;99.90;;;;;;6166749;29;20215;-67
2022/09/23 11:54:52;;;;;;;3.83;1.50;;;16.70;99.90;;;;;;6166164;28;20601;-68
2022/09/23 11:58:00;;;;;;;3.45;1.35;;;16.70;99.60;;;;;;6166210;28;20237;-68
2022/09/23 12:01:09;;;;;;;3.40;1.13;;;16.70;99.20;;;;;;6165905;29;20365;-68
2022/09/23 12:04:21;;;;;;;2.45;1.20;;;16.50;99.50;;;;;;6165951;28;20338;-68
2022/09/23 12:07:32;;;;;;;1.55;1.45;;;16.50;99.10;;;;;;6165993;28;20239;-67
2022/09/23 12:10:44;;;;;;;1.20;1.10;;;16.40;99.90;;;;;;6156572;29;20343;-67
2022/09/23 12:13:54;;;;;;;2.05;1.20;;;16.50;99.70;;;;;;6141904;29;20304;-68
2022/09/23 12:17:15;;;;;;;1.40;1.05;;;16.50;99.70;;;;;;6141345;29;20189;-68
2022/09/23 12:20:44;;;;;;;2.50;1.13;;;16.60;99.50;;;;;;6140687;29;20193;-65
2022/09/23 12:24:14;;;;;;;2.75;1.52;;;16.60;99.90;;;;;;6141717;29;20236;-65
2022/09/23 12:27:36;;;;;;;2.72;1.30;;;16.70;99.90;;;;;;6141413;29;20290;-67
2022/09/23 12:30:41;;;;;;;3.80;1.00;;;16.70;99.60;;;;;;6141482;29;20188;-67
2022/09/23 12:33:50;;;;;;;1.33;1.20;;;16.80;99.40;;;;;;6141262;29;20243;-67
2022/09/23 12:37:02;;;;;;;3.38;1.10;;;16.80;99.80;;;;;;6141205;29;20216;-66
2022/09/23 12:40:17;;;;;;;2.97;1.38;;;16.80;99.80;;;;;;6141677;29;20237;-66
2022/09/23 12:43:29;;;;;;;1.40;1.40;;;16.90;98.50;;;;;;6140849;29;20309;-66
2022/09/23 12:46:34;;;;;;;4.82;1.17;;;16.90;98.10;;;;;;6140949;29;20511;-67
2022/09/23 12:49:39;;;;;;;1.33;1.20;;;16.90;98.00;;;;;;6140914;29;20232;-66
2022/09/23 12:52:45;;;;;;;1.20;1.20;;;16.90;98.00;;;;;;6140590;29;20231;-66
2022/09/23 12:55:51;;;;;;;1.50;1.40;;;17.00;98.20;;;;;;6141367;29;20192;-68
2022/09/23 12:59:29;;;;;;;2.78;1.02;;;17.10;97.20;;;;;;6140756;29;20231;-66
2022/09/23 13:02:37;;;;;;;1.20;1.20;;;17.00;96.30;;;;;;6138604;28;20409;-66
2022/09/23 13:09:19;;;;;;;3.92;1.10;;;17.00;97.00;;;;;;6140474;29;20251;-67
2022/09/23 13:12:29;;;;;;;1.00;1.00;;;16.90;97.60;;;;;;6163404;28;20553;-66
2022/09/23 13:15:35;;;;;;;2.40;1.27;;;17.00;98.30;;;;;;6164401;28;20209;-67
2022/09/23 13:18:58;;;;;;;2.70;1.23;;;17.00;99.80;;;;;;6164214;28;20238;-66
2022/09/23 13:22:09;;;;;;;1.63;1.50;;;17.00;98.70;;;;;;6164214;28;20188;-66
2022/09/23 13:25:21;;;;;;;4.38;1.00;;;16.90;99.00;;;;;;6164444;28;20278;-67
2022/09/23 13:28:33;;;;;;;2.35;1.10;;;16.90;99.50;;;;;;6164090;28;20302;-67
2022/09/23 13:31:38;;;;;;;5.32;1.20;;;16.80;99.60;;;;;;6164465;29;20195;-67
2022/09/23 13:34:45;;;;;;;1.48;1.13;;;16.70;99.30;;;;;;6164082;28;20258;-67
2022/09/23 13:37:50;;;;;;;1.65;1.40;;;16.70;99.90;;;;;;6163754;28;20442;-67
2022/09/23 13:41:00;;;;;;;1.42;1.40;;;16.80;99.70;;;;;;6164335;29;20187;-67
2022/09/23 13:44:05;;;;;;;4.47;1.30;;;16.80;99.90;;;;;;6163784;28;20234;-67
2022/09/23 13:47:12;;;;;;;2.20;1.48;;;16.70;99.60;;;;;;6163429;28;20368;-67
2022/09/23 13:50:19;;;;;;;1.92;1.60;;;16.70;99.70;;;;;;6164524;28;20188;-68
2022/09/23 13:53:26;;;;;;;1.45;1.45;;;16.70;99.90;;;;;;6163728;28;20298;-67
2022/09/23 13:56:35;;;;;;;3.13;1.50;;;16.70;99.90;;;;;;6164394;28;20193;-67
2022/09/23 13:59:42;;;;;;;2.13;1.55;;;16.70;99.90;;;;;;6167935;28;20231;-67
2022/09/23 14:02:46;;;;;;;1.90;1.80;;;16.60;99.90;;;;;;6168521;28;20567;-67
2022/09/23 14:05:51;;;;;;;1.60;1.50;;;16.60;99.90;;;;;;6169006;28;20278;-67
2022/09/23 14:08:56;;;;;;;3.58;1.33;;;16.60;99.90;;;;;;6167829;28;20616;-67
2022/09/23 14:12:02;;;;;;;1.58;1.40;;;16.70;99.90;;;;;;6148043;28;20192;-67
2022/09/23 14:15:15;;;;;;;3.13;1.30;;;16.60;99.90;;;;;;6144341;29;20222;-67
2022/09/23 14:18:34;;;;;;;3.33;1.58;;;16.60;99.90;;;;;;6144471;29;20227;-67
2022/09/23 14:21:40;;;;;;;4.00;1.40;;;16.60;99.90;;;;;;6144743;29;20189;-67
2022/09/23 14:24:44;;;;;;;4.25;1.52;;;16.70;99.90;;;;;;6144251;29;20476;-67
2022/09/23 14:27:50;;;;;;;1.52;1.10;;;16.70;99.60;;;;;;6144464;29;20235;-67
2022/09/23 14:30:57;;;;;;;4.65;1.20;;;16.70;99.90;;;;;;6144617;29;20227;-67
2022/09/23 14:34:01;;;;;;;1.98;1.80;;;16.70;99.10;;;;;;6143968;29;20261;-67
2022/09/23 14:40:49;;;;;;;2.42;1.20;;;16.50;98.80;;;;;;6143191;29;20188;-67
2022/09/23 14:43:58;;;;;;;2.17;1.50;;;16.50;99.00;;;;;;6143731;29;20247;-67
2022/09/23 14:47:03;;;;;;;1.85;1.33;;;16.60;99.80;;;;;;6143571;29;20216;-68
2022/09/23 14:50:39;;;;;;;2.50;1.40;;;16.60;99.60;;;;;;6144216;29;20219;-67
2022/09/23 14:53:45;;;;;;;1.80;1.42;;;16.50;99.90;;;;;;6143650;29;20243;-67
2022/09/23 14:56:49;;;;;;;1.75;1.33;;;16.50;99.50;;;;;;6143703;29;20197;-67
2022/09/23 14:59:59;;;;;;;3.80;1.63;;;16.50;99.30;;;;;;6143721;29;20204;-67
2022/09/23 15:03:11;;;;;;;2.65;1.40;;;16.50;99.90;;;;;;6143560;28;20243;-67
2022/09/23 15:06:16;;;;;;;1.90;1.63;;;16.40;99.30;;;;;;6143787;29;20223;-67
2022/09/23 15:09:23;;;;;;;1.90;1.00;;;16.40;99.40;;;;;;6143282;29;20247;-67
2022/09/23 15:12:28;;;;;;;1.08;1.08;;;16.20;97.20;;;;;;6119364;29;20309;-68
2022/09/23 15:15:34;;;;;;;1.73;1.63;;;16.30;98.30;;;;;;6119555;29;20496;-67
2022/09/23 15:18:40;;;;;;;1.58;1.48;;;16.30;97.00;;;;;;6119365;29;20233;-67
2022/09/23 15:21:45;;;;;;;1.70;1.58;;;16.30;97.30;;;;;;6119718;29;20256;-68
2022/09/23 15:24:52;;;;;;;1.25;1.25;;;16.20;96.90;;;;;;6119234;29;20366;-68
2022/09/23 15:28:01;;;;;;;2.50;1.23;;;16.20;96.80;;;;;;6119263;29;20239;-68
2022/09/23 15:31:07;;;;;;;1.50;1.30;;;16.20;97.10;;;;;;6119625;29;20305;-67
2022/09/23 15:34:12;;;;;;;1.88;1.35;;;16.10;96.60;;;;;;6118951;29;20618;-67
2022/09/23 15:37:16;;;;;;;1.90;1.23;;;16.00;98.50;;;;;;6118931;29;20228;-67
2022/09/23 15:40:23;;;;;;;2.83;1.30;;;16.00;98.50;;;;;;6119068;29;20527;-67
2022/09/23 15:43:28;;;;;;;1.83;1.20;;;16.00;99.30;;;;;;6118961;29;20250;-67
2022/09/23 15:46:33;;;;;;;2.25;1.27;;;15.90;98.40;;;;;;6118591;29;20213;-66
2022/09/23 15:49:39;;;;;;;1.08;1.08;;;15.80;98.70;;;;;;6118644;29;20374;-67
2022/09/23 15:52:44;;;;;;;2.97;1.40;;;15.70;97.50;;;;;;6118487;29;20235;-66
2022/09/23 15:55:49;;;;;;;1.30;1.30;;;15.60;98.00;;;;;;6119266;29;20260;-67
2022/09/23 15:58:54;;;;;;;1.55;1.55;;;15.60;98.10;;;;;;6118219;29;20590;-67
2022/09/23 16:02:02;;;;;;;1.48;1.38;;;15.60;98.40;;;;;;6118504;29;20188;-67
2022/09/23 16:05:17;;;;;;;3.65;1.20;;;15.50;99.10;;;;;;6118466;29;20213;-67
2022/09/23 16:08:22;;;;;;;1.17;1.17;;;15.60;99.90;;;;;;6117950;29;20515;-67
2022/09/23 16:11:30;;;;;;;3.17;1.50;;;15.40;99.90;;;;;;6149610;29;20231;-67
2022/09/23 16:14:34;;;;;;;1.75;1.65;;;15.40;99.90;;;;;;6165649;28;20241;-68
2022/09/23 16:17:40;;;;;;;1.58;1.48;;;15.30;99.90;;;;;;6165156;28;20226;-68
2022/09/23 16:20:46;;;;;;;2.22;1.27;;;15.30;99.90;;;;;;6164972;28;20191;-66
2022/09/23 16:23:52;;;;;;;1.63;1.50;;;15.20;99.90;;;;;;6165435;28;20335;-67
2022/09/23 16:26:59;;;;;;;2.28;1.52;;;15.10;99.90;;;;;;6164827;28;20540;-67
2022/09/23 16:30:05;;;;;;;1.40;1.40;;;15.10;99.90;;;;;;6165326;29;20444;-68
2022/09/23 16:33:17;;;;;;;1.77;1.67;;;15.10;99.90;;;;;;6165343;28;20231;-70
2022/09/23 16:36:25;;;;;;;2.22;1.73;;;15.00;99.90;;;;;;6165168;29;20258;-67